sensor_id;sensor_type;location;lat;lon;timestamp;pressure;altitude;pressure_sealevel;temperature;humidity
71559;BME280;59382;43.852;25.952;2023-02-25T00:00:41;100575.56;;;9.54;59.59
71559;BME280;59382;43.852;25.952;2023-02-25T00:03:09;100588.84;;;9.62;59.68
71559;BME280;59382;43.852;25.952;2023-02-25T00:05:38;100583.47;;;9.62;59.64
71559;BME280;59382;43.852;25.952;2023-02-25T00:08:05;100582.41;;;9.63;59.87
71559;BME280;59382;43.852;25.952;2023-02-25T00:10:31;100570.78;;;9.63;59.43
71559;BME280;59382;43.852;25.952;2023-02-25T00:12:58;100558.56;;;9.60;59.40
71559;BME280;59382;43.852;25.952;2023-02-25T00:15:24;100544.91;;;9.49;59.68
71559;BME280;59382;43.852;25.952;2023-02-25T00:17:50;100560.84;;;9.63;59.71
71559;BME280;59382;43.852;25.952;2023-02-25T00:20:17;100559.00;;;9.64;59.48
71559;BME280;59382;43.852;25.952;2023-02-25T00:22:45;100537.22;;;9.52;59.41
71559;BME280;59382;43.852;25.952;2023-02-25T00:25:10;100529.97;;;9.46;59.72
71559;BME280;59382;43.852;25.952;2023-02-25T00:27:38;100527.72;;;9.43;59.58
71559;BME280;59382;43.852;25.952;2023-02-25T00:30:03;100553.81;;;9.49;59.66
71559;BME280;59382;43.852;25.952;2023-02-25T00:32:29;100555.69;;;9.42;59.61
71559;BME280;59382;43.852;25.952;2023-02-25T00:34:55;100556.09;;;9.26;59.70
71559;BME280;59382;43.852;25.952;2023-02-25T00:37:21;100543.25;;;9.15;60.11
71559;BME280;59382;43.852;25.952;2023-02-25T00:39:47;100524.63;;;9.07;60.00
71559;BME280;59382;43.852;25.952;2023-02-25T00:42:14;100553.19;;;9.21;59.93
71559;BME280;59382;43.852;25.952;2023-02-25T00:44:44;100515.09;;;9.11;59.88
71559;BME280;59382;43.852;25.952;2023-02-25T00:47:10;100522.34;;;9.17;59.79
71559;BME280;59382;43.852;25.952;2023-02-25T00:49:36;100517.16;;;9.16;59.67
71559;BME280;59382;43.852;25.952;2023-02-25T00:52:04;100521.31;;;9.25;59.67
71559;BME280;59382;43.852;25.952;2023-02-25T00:54:33;100521.91;;;9.33;59.53
71559;BME280;59382;43.852;25.952;2023-02-25T00:56:59;100510.56;;;9.31;59.56
71559;BME280;59382;43.852;25.952;2023-02-25T00:59:27;100508.88;;;9.30;59.52
71559;BME280;59382;43.852;25.952;2023-02-25T01:01:53;100496.03;;;9.26;59.61
71559;BME280;59382;43.852;25.952;2023-02-25T01:04:18;100496.03;;;9.32;59.65
71559;BME280;59382;43.852;25.952;2023-02-25T01:06:44;100484.03;;;9.28;59.46
71559;BME280;59382;43.852;25.952;2023-02-25T01:09:09;100479.47;;;9.35;59.49
71559;BME280;59382;43.852;25.952;2023-02-25T01:11:40;100472.81;;;9.44;59.44
71559;BME280;59382;43.852;25.952;2023-02-25T01:14:10;100486.47;;;9.49;59.33
71559;BME280;59382;43.852;25.952;2023-02-25T01:16:36;100479.03;;;9.51;59.47
71559;BME280;59382;43.852;25.952;2023-02-25T01:19:08;100478.22;;;9.44;59.32
71559;BME280;59382;43.852;25.952;2023-02-25T01:21:42;100517.13;;;9.42;59.31
71559;BME280;59382;43.852;25.952;2023-02-25T01:24:19;100525.84;;;9.24;59.24
71559;BME280;59382;43.852;25.952;2023-02-25T01:26:46;100501.44;;;9.00;59.74
71559;BME280;59382;43.852;25.952;2023-02-25T01:29:24;100496.88;;;8.94;60.04
71559;BME280;59382;43.852;25.952;2023-02-25T01:31:55;100474.09;;;8.83;60.01
71559;BME280;59382;43.852;25.952;2023-02-25T01:34:21;100481.94;;;8.78;60.13
71559;BME280;59382;43.852;25.952;2023-02-25T01:36:47;100470.34;;;8.84;60.00
71559;BME280;59382;43.852;25.952;2023-02-25T01:39:14;100479.06;;;8.86;59.68
71559;BME280;59382;43.852;25.952;2023-02-25T01:41:40;100490.66;;;8.93;59.90
71559;BME280;59382;43.852;25.952;2023-02-25T01:44:37;100472.84;;;8.86;59.56
71559;BME280;59382;43.852;25.952;2023-02-25T01:47:03;100487.75;;;8.88;59.39
71559;BME280;59382;43.852;25.952;2023-02-25T01:49:37;100484.44;;;8.80;59.58
71559;BME280;59382;43.852;25.952;2023-02-25T01:52:10;100463.72;;;8.67;59.17
71559;BME280;59382;43.852;25.952;2023-02-25T01:54:37;100488.78;;;8.74;59.52
71559;BME280;59382;43.852;25.952;2023-02-25T01:57:07;100445.09;;;8.46;59.25
71559;BME280;59382;43.852;25.952;2023-02-25T01:59:33;100456.25;;;8.56;59.35
71559;BME280;59382;43.852;25.952;2023-02-25T02:02:00;100463.28;;;8.57;58.73
71559;BME280;59382;43.852;25.952;2023-02-25T02:04:25;100463.28;;;8.57;59.38
71559;BME280;59382;43.852;25.952;2023-02-25T02:06:51;100442.16;;;8.41;59.57
71559;BME280;59382;43.852;25.952;2023-02-25T02:09:21;100448.19;;;8.43;59.60
71559;BME280;59382;43.852;25.952;2023-02-25T02:11:48;100455.81;;;8.33;60.06
71559;BME280;59382;43.852;25.952;2023-02-25T02:14:17;100460.72;;;8.23;60.42
71559;BME280;59382;43.852;25.952;2023-02-25T02:17:15;100454.06;;;8.19;60.73
71559;BME280;59382;43.852;25.952;2023-02-25T02:19:48;100447.19;;;7.97;60.58
71559;BME280;59382;43.852;25.952;2023-02-25T02:22:29;100447.72;;;7.79;61.32
71559;BME280;59382;43.852;25.952;2023-02-25T02:36:13;100418.78;;;7.75;61.21
71559;BME280;59382;43.852;25.952;2023-02-25T02:38:49;100448.63;;;7.99;61.42
71559;BME280;59382;43.852;25.952;2023-02-25T02:43:55;100415.53;;;7.99;61.10
71559;BME280;59382;43.852;25.952;2023-02-25T02:46:26;100420.53;;;8.02;60.84
71559;BME280;59382;43.852;25.952;2023-02-25T02:49:02;100413.06;;;7.97;60.98
71559;BME280;59382;43.852;25.952;2023-02-25T02:51:37;100431.34;;;8.15;61.14
71559;BME280;59382;43.852;25.952;2023-02-25T02:54:07;100430.53;;;8.21;61.10
71559;BME280;59382;43.852;25.952;2023-02-25T02:56:37;100419.53;;;8.16;60.98
71559;BME280;59382;43.852;25.952;2023-02-25T02:59:38;100434.31;;;8.33;61.02
71559;BME280;59382;43.852;25.952;2023-02-25T03:02:16;100405.31;;;8.22;60.88
71559;BME280;59382;43.852;25.952;2023-02-25T03:04:48;100428.53;;;8.36;60.75
71559;BME280;59382;43.852;25.952;2023-02-25T03:07:15;100420.22;;;8.31;60.76
71559;BME280;59382;43.852;25.952;2023-02-25T03:09:48;100438.25;;;8.37;60.97
71559;BME280;59382;43.852;25.952;2023-02-25T03:12:14;100444.66;;;8.43;60.74
71559;BME280;59382;43.852;25.952;2023-02-25T03:14:40;100428.72;;;8.35;60.61
71559;BME280;59382;43.852;25.952;2023-02-25T03:17:13;100447.13;;;8.44;60.68
71559;BME280;59382;43.852;25.952;2023-02-25T03:22:35;100432.03;;;8.43;60.35
71559;BME280;59382;43.852;25.952;2023-02-25T03:25:14;100434.09;;;8.41;60.39
71559;BME280;59382;43.852;25.952;2023-02-25T03:27:44;100431.41;;;8.41;60.23
71559;BME280;59382;43.852;25.952;2023-02-25T03:32:50;100431.81;;;8.38;60.81
71559;BME280;59382;43.852;25.952;2023-02-25T03:35:18;100438.03;;;8.45;60.35
71559;BME280;59382;43.852;25.952;2023-02-25T03:37:48;100440.53;;;8.40;60.33
71559;BME280;59382;43.852;25.952;2023-02-25T03:40:15;100443.59;;;8.37;60.51
71559;BME280;59382;43.852;25.952;2023-02-25T03:43:05;100435.94;;;8.34;60.62
71559;BME280;59382;43.852;25.952;2023-02-25T03:45:35;100425.59;;;8.31;60.34
71559;BME280;59382;43.852;25.952;2023-02-25T03:48:02;100401.16;;;8.20;60.30
71559;BME280;59382;43.852;25.952;2023-02-25T03:50:33;100420.00;;;8.26;60.26
71559;BME280;59382;43.852;25.952;2023-02-25T03:53:00;100424.78;;;8.24;60.34
71559;BME280;59382;43.852;25.952;2023-02-25T03:55:26;100390.75;;;8.03;60.39
71559;BME280;59382;43.852;25.952;2023-02-25T03:57:53;100411.47;;;8.16;60.39
71559;BME280;59382;43.852;25.952;2023-02-25T04:00:26;100427.19;;;8.19;60.45
71559;BME280;59382;43.852;25.952;2023-02-25T04:02:52;100416.81;;;8.09;60.62
71559;BME280;59382;43.852;25.952;2023-02-25T04:05:19;100410.59;;;8.02;60.88
71559;BME280;59382;43.852;25.952;2023-02-25T04:07:46;100407.75;;;8.11;60.46
71559;BME280;59382;43.852;25.952;2023-02-25T04:10:15;100402.56;;;8.09;60.67
71559;BME280;59382;43.852;25.952;2023-02-25T04:12:41;100384.16;;;8.06;60.55
71559;BME280;59382;43.852;25.952;2023-02-25T04:15:07;100395.34;;;8.16;60.48
71559;BME280;59382;43.852;25.952;2023-02-25T04:17:34;100378.78;;;8.06;60.46
71559;BME280;59382;43.852;25.952;2023-02-25T04:20:00;100400.28;;;8.13;60.42
71559;BME280;59382;43.852;25.952;2023-02-25T04:22:25;100392.44;;;8.11;60.74
71559;BME280;59382;43.852;25.952;2023-02-25T04:24:51;100369.66;;;7.94;60.43
71559;BME280;59382;43.852;25.952;2023-02-25T04:27:17;100385.59;;;8.02;60.35
71559;BME280;59382;43.852;25.952;2023-02-25T04:29:43;100381.06;;;8.02;60.17
71559;BME280;59382;43.852;25.952;2023-02-25T04:32:10;100366.75;;;7.89;60.26
71559;BME280;59382;43.852;25.952;2023-02-25T04:34:36;100360.78;;;7.87;60.53
71559;BME280;59382;43.852;25.952;2023-02-25T04:37:02;100376.69;;;7.95;60.41
71559;BME280;59382;43.852;25.952;2023-02-25T04:39:30;100380.63;;;7.92;60.16
71559;BME280;59382;43.852;25.952;2023-02-25T04:41:55;100375.44;;;7.91;60.51
71559;BME280;59382;43.852;25.952;2023-02-25T04:44:21;100374.00;;;7.88;60.35
71559;BME280;59382;43.852;25.952;2023-02-25T04:46:47;100355.16;;;7.82;60.24
71559;BME280;59382;43.852;25.952;2023-02-25T04:49:20;100349.59;;;7.83;60.09
71559;BME280;59382;43.852;25.952;2023-02-25T04:51:48;100356.00;;;7.89;60.40
71559;BME280;59382;43.852;25.952;2023-02-25T04:54:16;100353.56;;;7.94;60.36
71559;BME280;59382;43.852;25.952;2023-02-25T04:56:43;100343.63;;;7.88;60.12
71559;BME280;59382;43.852;25.952;2023-02-25T04:59:10;100350.47;;;7.97;59.96
71559;BME280;59382;43.852;25.952;2023-02-25T05:01:36;100361.41;;;8.02;60.40
71559;BME280;59382;43.852;25.952;2023-02-25T05:04:03;100330.78;;;7.83;59.80
71559;BME280;59382;43.852;25.952;2023-02-25T05:06:28;100345.28;;;7.95;59.96
71559;BME280;59382;43.852;25.952;2023-02-25T05:08:55;100359.31;;;7.97;60.05
71559;BME280;59382;43.852;25.952;2023-02-25T05:11:25;100351.47;;;7.96;60.03
71559;BME280;59382;43.852;25.952;2023-02-25T05:13:53;100345.25;;;7.89;60.03
71559;BME280;59382;43.852;25.952;2023-02-25T05:16:23;100352.31;;;7.90;59.94
71559;BME280;59382;43.852;25.952;2023-02-25T05:18:49;100318.34;;;7.63;60.01
71559;BME280;59382;43.852;25.952;2023-02-25T05:21:17;100358.25;;;7.79;59.82
71559;BME280;59382;43.852;25.952;2023-02-25T05:23:44;100351.41;;;7.70;60.09
71559;BME280;59382;43.852;25.952;2023-02-25T05:26:11;100357.19;;;7.67;60.06
71559;BME280;59382;43.852;25.952;2023-02-25T05:28:37;100363.41;;;7.74;60.14
71559;BME280;59382;43.852;25.952;2023-02-25T05:31:07;100357.00;;;7.75;60.13
71559;BME280;59382;43.852;25.952;2023-02-25T05:33:35;100300.06;;;7.39;60.08
71559;BME280;59382;43.852;25.952;2023-02-25T05:36:04;100353.06;;;7.71;59.98
71559;BME280;59382;43.852;25.952;2023-02-25T05:38:30;100360.09;;;7.72;59.77
71559;BME280;59382;43.852;25.952;2023-02-25T05:40:58;100354.97;;;7.83;59.38
71559;BME280;59382;43.852;25.952;2023-02-25T05:43:24;100359.09;;;7.86;59.44
71559;BME280;59382;43.852;25.952;2023-02-25T05:45:56;100346.47;;;7.73;59.62
71559;BME280;59382;43.852;25.952;2023-02-25T05:48:23;100357.84;;;7.82;59.64
71559;BME280;59382;43.852;25.952;2023-02-25T05:50:49;100353.53;;;7.81;59.63
71559;BME280;59382;43.852;25.952;2023-02-25T05:53:18;100342.78;;;7.81;59.66
71559;BME280;59382;43.852;25.952;2023-02-25T05:55:45;100319.81;;;7.72;59.25
71559;BME280;59382;43.852;25.952;2023-02-25T05:58:11;100344.44;;;7.95;59.40
71559;BME280;59382;43.852;25.952;2023-02-25T06:00:37;100306.81;;;7.82;59.40
71559;BME280;59382;43.852;25.952;2023-02-25T06:03:03;100341.97;;;8.06;59.30
71559;BME280;59382;43.852;25.952;2023-02-25T06:05:29;100333.31;;;8.11;59.12
71559;BME280;59382;43.852;25.952;2023-02-25T06:07:56;100332.91;;;8.21;59.10
71559;BME280;59382;43.852;25.952;2023-02-25T06:10:23;100329.66;;;8.25;58.65
71559;BME280;59382;43.852;25.952;2023-02-25T06:12:48;100329.03;;;8.23;58.89
71559;BME280;59382;43.852;25.952;2023-02-25T06:15:14;100348.28;;;8.33;59.21
71559;BME280;59382;43.852;25.952;2023-02-25T06:17:40;100354.06;;;8.30;59.07
71559;BME280;59382;43.852;25.952;2023-02-25T06:20:06;100368.75;;;8.34;59.25
71559;BME280;59382;43.852;25.952;2023-02-25T06:22:32;100371.63;;;8.26;59.11
71559;BME280;59382;43.852;25.952;2023-02-25T06:24:57;100372.25;;;8.28;59.30
71559;BME280;59382;43.852;25.952;2023-02-25T06:27:23;100364.78;;;8.24;59.17
71559;BME280;59382;43.852;25.952;2023-02-25T06:29:48;100373.91;;;8.29;59.21
71559;BME280;59382;43.852;25.952;2023-02-25T06:32:15;100366.00;;;8.21;59.17
71559;BME280;59382;43.852;25.952;2023-02-25T06:34:40;100353.22;;;8.23;59.54
71559;BME280;59382;43.852;25.952;2023-02-25T06:37:06;100347.00;;;8.42;59.25
71559;BME280;59382;43.852;25.952;2023-02-25T06:39:32;100343.50;;;8.87;58.65
71559;BME280;59382;43.852;25.952;2023-02-25T06:41:58;100322.09;;;9.18;58.00
71559;BME280;59382;43.852;25.952;2023-02-25T06:44:24;100324.84;;;9.62;57.66
71559;BME280;59382;43.852;25.952;2023-02-25T06:46:52;100325.03;;;9.98;56.51
71559;BME280;59382;43.852;25.952;2023-02-25T06:49:21;100310.00;;;10.22;56.23
71559;BME280;59382;43.852;25.952;2023-02-25T06:51:47;100319.72;;;10.48;55.57
71559;BME280;59382;43.852;25.952;2023-02-25T06:54:15;100327.88;;;10.66;55.26
71559;BME280;59382;43.852;25.952;2023-02-25T06:56:41;100305.25;;;10.67;54.93
71559;BME280;59382;43.852;25.952;2023-02-25T06:59:07;100311.25;;;10.69;54.69
71559;BME280;59382;43.852;25.952;2023-02-25T07:01:32;100319.06;;;10.77;55.28
71559;BME280;59382;43.852;25.952;2023-02-25T07:03:58;100310.75;;;10.78;54.76
71559;BME280;59382;43.852;25.952;2023-02-25T07:06:23;100308.81;;;10.85;55.13
71559;BME280;59382;43.852;25.952;2023-02-25T07:08:49;100294.34;;;10.98;54.75
71559;BME280;59382;43.852;25.952;2023-02-25T07:13:45;100293.72;;;10.78;55.08
71559;BME280;59382;43.852;25.952;2023-02-25T07:16:12;100291.19;;;10.83;55.19
71559;BME280;59382;43.852;25.952;2023-02-25T07:18:39;100271.53;;;10.94;54.57
71559;BME280;59382;43.852;25.952;2023-02-25T07:21:05;100264.88;;;11.14;54.76
71559;BME280;59382;43.852;25.952;2023-02-25T07:23:31;100266.28;;;11.35;54.47
71559;BME280;59382;43.852;25.952;2023-02-25T07:25:56;100263.69;;;11.58;53.94
71559;BME280;59382;43.852;25.952;2023-02-25T07:28:22;100261.88;;;11.70;53.38
71559;BME280;59382;43.852;25.952;2023-02-25T07:30:47;100264.47;;;11.65;53.38
71559;BME280;59382;43.852;25.952;2023-02-25T07:33:13;100259.06;;;11.65;53.86
71559;BME280;59382;43.852;25.952;2023-02-25T07:35:38;100244.66;;;11.53;53.86
71559;BME280;59382;43.852;25.952;2023-02-25T07:38:04;100259.66;;;11.67;53.30
71559;BME280;59382;43.852;25.952;2023-02-25T07:40:29;100256.81;;;11.62;53.97
71559;BME280;59382;43.852;25.952;2023-02-25T07:42:55;100247.66;;;11.45;53.94
71559;BME280;59382;43.852;25.952;2023-02-25T07:45:21;100226.81;;;11.34;54.03
71559;BME280;59382;43.852;25.952;2023-02-25T07:47:47;100244.53;;;11.59;53.96
71559;BME280;59382;43.852;25.952;2023-02-25T07:50:13;100226.28;;;11.73;54.00
71559;BME280;59382;43.852;25.952;2023-02-25T07:52:38;100228.59;;;11.99;53.34
71559;BME280;59382;43.852;25.952;2023-02-25T07:55:05;100218.03;;;12.09;53.14
71559;BME280;59382;43.852;25.952;2023-02-25T07:57:31;100221.13;;;12.24;52.83
71559;BME280;59382;43.852;25.952;2023-02-25T07:59:57;100226.16;;;12.32;52.98
71559;BME280;59382;43.852;25.952;2023-02-25T08:02:26;100196.78;;;12.13;53.02
71559;BME280;59382;43.852;25.952;2023-02-25T08:04:51;100212.78;;;12.26;53.52
71559;BME280;59382;43.852;25.952;2023-02-25T08:07:17;100196.88;;;12.29;52.94
71559;BME280;59382;43.852;25.952;2023-02-25T08:09:42;100191.81;;;12.21;53.04
71559;BME280;59382;43.852;25.952;2023-02-25T08:12:08;100189.56;;;12.41;53.21
71559;BME280;59382;43.852;25.952;2023-02-25T08:14:35;100205.47;;;12.61;53.07
71559;BME280;59382;43.852;25.952;2023-02-25T08:17:01;100197.56;;;12.59;53.20
71559;BME280;59382;43.852;25.952;2023-02-25T08:19:27;100209.09;;;12.66;53.30
71559;BME280;59382;43.852;25.952;2023-02-25T08:21:53;100199.22;;;12.72;53.46
71559;BME280;59382;43.852;25.952;2023-02-25T08:24:20;100203.44;;;12.79;53.75
71559;BME280;59382;43.852;25.952;2023-02-25T08:26:47;100199.41;;;12.93;53.20
71559;BME280;59382;43.852;25.952;2023-02-25T08:29:13;100182.59;;;13.03;53.51
71559;BME280;59382;43.852;25.952;2023-02-25T08:31:39;100184.41;;;13.14;53.54
71559;BME280;59382;43.852;25.952;2023-02-25T08:34:05;100175.09;;;13.21;53.63
71559;BME280;59382;43.852;25.952;2023-02-25T08:36:31;100184.00;;;13.33;53.27
71559;BME280;59382;43.852;25.952;2023-02-25T08:38:58;100170.13;;;13.30;53.65
71559;BME280;59382;43.852;25.952;2023-02-25T08:41:25;100180.06;;;13.41;53.37
71559;BME280;59382;43.852;25.952;2023-02-25T08:43:53;100183.31;;;13.54;53.50
71559;BME280;59382;43.852;25.952;2023-02-25T08:46:23;100168.13;;;13.53;53.41
71559;BME280;59382;43.852;25.952;2023-02-25T08:48:50;100167.47;;;13.63;53.07
71559;BME280;59382;43.852;25.952;2023-02-25T08:51:17;100185.59;;;13.91;52.99
71559;BME280;59382;43.852;25.952;2023-02-25T08:53:42;100176.53;;;14.02;52.68
71559;BME280;59382;43.852;25.952;2023-02-25T08:56:11;100175.06;;;14.11;52.72
71559;BME280;59382;43.852;25.952;2023-02-25T08:58:37;100148.44;;;14.08;52.64
71559;BME280;59382;43.852;25.952;2023-02-25T09:01:08;100166.53;;;14.19;52.92
71559;BME280;59382;43.852;25.952;2023-02-25T09:03:40;100164.78;;;14.13;53.23
71559;BME280;59382;43.852;25.952;2023-02-25T09:06:15;100151.06;;;14.03;53.73
71559;BME280;59382;43.852;25.952;2023-02-25T09:08:41;100163.22;;;14.17;53.47
71559;BME280;59382;43.852;25.952;2023-02-25T09:11:07;100175.25;;;14.21;53.90
71559;BME280;59382;43.852;25.952;2023-02-25T09:13:32;100160.09;;;14.08;54.15
71559;BME280;59382;43.852;25.952;2023-02-25T09:15:59;100159.38;;;14.13;54.26
71559;BME280;59382;43.852;25.952;2023-02-25T09:18:25;100153.84;;;14.08;54.54
71559;BME280;59382;43.852;25.952;2023-02-25T09:20:51;100142.34;;;14.01;54.86
71559;BME280;59382;43.852;25.952;2023-02-25T09:23:17;100134.06;;;13.91;55.37
71559;BME280;59382;43.852;25.952;2023-02-25T09:25:42;100121.16;;;13.81;55.71
71559;BME280;59382;43.852;25.952;2023-02-25T09:28:10;100129.72;;;13.90;55.58
71559;BME280;59382;43.852;25.952;2023-02-25T09:30:36;100129.22;;;13.93;55.82
71559;BME280;59382;43.852;25.952;2023-02-25T09:33:02;100120.50;;;13.91;55.95
71559;BME280;59382;43.852;25.952;2023-02-25T09:35:28;100125.53;;;13.99;55.94
71559;BME280;59382;43.852;25.952;2023-02-25T09:37:53;100117.88;;;13.96;55.99
71559;BME280;59382;43.852;25.952;2023-02-25T09:40:19;100126.66;;;14.03;55.88
71559;BME280;59382;43.852;25.952;2023-02-25T09:45:17;100125.09;;;14.07;56.04
71559;BME280;59382;43.852;25.952;2023-02-25T09:47:48;100092.88;;;13.94;56.65
71559;BME280;59382;43.852;25.952;2023-02-25T09:50:25;100107.84;;;13.96;57.25
71559;BME280;59382;43.852;25.952;2023-02-25T09:55:38;100094.94;;;13.87;57.15
71559;BME280;59382;43.852;25.952;2023-02-25T10:00:49;100096.00;;;13.85;57.17
71559;BME280;59382;43.852;25.952;2023-02-25T10:03:28;100089.69;;;13.80;57.59
71559;BME280;59382;43.852;25.952;2023-02-25T10:09:33;100102.25;;;13.69;58.43
71559;BME280;59382;43.852;25.952;2023-02-25T10:14:54;100092.97;;;13.65;57.64
71559;BME280;59382;43.852;25.952;2023-02-25T10:17:54;100082.13;;;13.65;58.28
71559;BME280;59382;43.852;25.952;2023-02-25T10:20:54;100092.88;;;13.60;58.60
71559;BME280;59382;43.852;25.952;2023-02-25T10:24:00;100091.75;;;13.56;59.08
71559;BME280;59382;43.852;25.952;2023-02-25T10:26:41;100083.84;;;13.55;58.64
71559;BME280;59382;43.852;25.952;2023-02-25T10:30:00;100083.84;;;13.55;58.69
71559;BME280;59382;43.852;25.952;2023-02-25T10:32:42;100042.78;;;13.46;59.50
71559;BME280;59382;43.852;25.952;2023-02-25T10:35:12;100030.13;;;13.52;59.15
71559;BME280;59382;43.852;25.952;2023-02-25T10:37:38;100023.53;;;13.64;58.83
71559;BME280;59382;43.852;25.952;2023-02-25T10:40:13;100028.47;;;13.67;59.47
71559;BME280;59382;43.852;25.952;2023-02-25T10:42:46;100019.28;;;13.68;59.22
71559;BME280;59382;43.852;25.952;2023-02-25T10:45:18;100029.63;;;13.71;58.98
71559;BME280;59382;43.852;25.952;2023-02-25T10:47:46;100009.47;;;13.67;58.80
71559;BME280;59382;43.852;25.952;2023-02-25T10:50:26;100024.25;;;13.76;58.94
71559;BME280;59382;43.852;25.952;2023-02-25T10:57:55;100034.56;;;13.74;59.60
71559;BME280;59382;43.852;25.952;2023-02-25T11:00:26;100025.25;;;13.70;59.42
71559;BME280;59382;43.852;25.952;2023-02-25T11:02:53;100023.03;;;13.67;59.63
71559;BME280;59382;43.852;25.952;2023-02-25T11:05:40;100015.91;;;13.61;59.77
71559;BME280;59382;43.852;25.952;2023-02-25T11:08:29;100012.94;;;13.63;60.04
71559;BME280;59382;43.852;25.952;2023-02-25T11:13:34;99991.34;;;13.68;59.75
71559;BME280;59382;43.852;25.952;2023-02-25T11:16:08;99982.97;;;13.69;59.94
71559;BME280;59382;43.852;25.952;2023-02-25T11:18:37;99961.94;;;13.60;59.48
71559;BME280;59382;43.852;25.952;2023-02-25T11:21:12;99981.31;;;13.68;59.79
71559;BME280;59382;43.852;25.952;2023-02-25T11:26:13;99989.50;;;13.73;60.15
71559;BME280;59382;43.852;25.952;2023-02-25T11:28:44;99955.50;;;13.66;59.92
71559;BME280;59382;43.852;25.952;2023-02-25T11:31:21;99969.22;;;13.76;59.67
71559;BME280;59382;43.852;25.952;2023-02-25T11:33:54;99971.94;;;13.76;60.00
71559;BME280;59382;43.852;25.952;2023-02-25T11:36:30;99946.13;;;13.73;60.15
71559;BME280;59382;43.852;25.952;2023-02-25T11:39:17;99948.91;;;13.78;60.08
71559;BME280;59382;43.852;25.952;2023-02-25T11:41:44;99952.88;;;13.71;60.19
71559;BME280;59382;43.852;25.952;2023-02-25T11:52:24;100000.69;;;13.77;60.14
71559;BME280;59382;43.852;25.952;2023-02-25T12:00:51;99992.81;;;13.75;59.80
71559;BME280;59382;43.852;25.952;2023-02-25T12:17:15;99970.06;;;13.98;58.93
71559;BME280;59382;43.852;25.952;2023-02-25T12:25:29;99968.13;;;13.94;58.63
71559;BME280;59382;43.852;25.952;2023-02-25T12:31:46;99980.47;;;13.84;58.71
71559;BME280;59382;43.852;25.952;2023-02-25T12:34:23;99953.13;;;13.69;58.69
71559;BME280;59382;43.852;25.952;2023-02-25T12:36:59;99969.00;;;13.77;58.75
71559;BME280;59382;43.852;25.952;2023-02-25T13:12:09;99974.75;;;13.64;58.89
71559;BME280;59382;43.852;25.952;2023-02-25T13:15:06;99976.47;;;13.70;58.84
71559;BME280;59382;43.852;25.952;2023-02-25T13:18:32;99970.47;;;13.68;58.95
71559;BME280;59382;43.852;25.952;2023-02-25T13:20:37;99968.81;;;13.67;58.74
71559;BME280;59382;43.852;25.952;2023-02-25T13:23:34;99963.66;;;13.66;59.06
71559;BME280;59382;43.852;25.952;2023-02-25T13:31:39;99962.25;;;13.63;59.00
71559;BME280;59382;43.852;25.952;2023-02-25T13:34:33;99958.81;;;13.51;59.32
71559;BME280;59382;43.852;25.952;2023-02-25T13:40:29;99951.78;;;13.50;59.58
71559;BME280;59382;43.852;25.952;2023-02-25T13:53:54;99940.06;;;13.66;59.29
71559;BME280;59382;43.852;25.952;2023-02-25T13:56:55;99929.22;;;13.66;59.40
71559;BME280;59382;43.852;25.952;2023-02-25T13:59:37;99926.94;;;13.58;59.06
71559;BME280;59382;43.852;25.952;2023-02-25T14:02:19;99926.44;;;13.61;59.63
71559;BME280;59382;43.852;25.952;2023-02-25T14:05:33;99923.47;;;13.63;59.27
71559;BME280;59382;43.852;25.952;2023-02-25T14:19:17;99911.91;;;13.89;58.61
71559;BME280;59382;43.852;25.952;2023-02-25T14:25:06;99890.53;;;13.93;58.52
71559;BME280;59382;43.852;25.952;2023-02-25T14:36:18;99892.69;;;13.91;58.65
71559;BME280;59382;43.852;25.952;2023-02-25T14:48:40;99890.09;;;14.01;58.42
71559;BME280;59382;43.852;25.952;2023-02-25T14:50:41;99869.97;;;13.97;58.17
71559;BME280;59382;43.852;25.952;2023-02-25T14:56:45;99875.41;;;13.97;58.51
71559;BME280;59382;43.852;25.952;2023-02-25T15:01:59;99871.31;;;13.94;58.28
71559;BME280;59382;43.852;25.952;2023-02-25T15:07:42;99868.97;;;14.03;58.33
71559;BME280;59382;43.852;25.952;2023-02-25T15:10:22;99868.44;;;14.06;58.22
71559;BME280;59382;43.852;25.952;2023-02-25T15:24:02;99860.75;;;13.98;58.18
71559;BME280;59382;43.852;25.952;2023-02-25T15:27:00;99867.19;;;13.92;58.36
71559;BME280;59382;43.852;25.952;2023-02-25T15:32:28;99868.19;;;13.85;58.86
71559;BME280;59382;43.852;25.952;2023-02-25T15:35:04;99888.09;;;13.91;58.61
71559;BME280;59382;43.852;25.952;2023-02-25T15:37:32;99883.47;;;13.92;58.67
71559;BME280;59382;43.852;25.952;2023-02-25T16:09:07;99889.66;;;13.65;59.23
71559;BME280;59382;43.852;25.952;2023-02-25T16:14:11;99893.41;;;13.64;58.97
71559;BME280;59382;43.852;25.952;2023-02-25T16:16:45;99910.34;;;13.71;59.11
71559;BME280;59382;43.852;25.952;2023-02-25T16:19:17;99906.03;;;13.75;58.77
71559;BME280;59382;43.852;25.952;2023-02-25T16:21:47;99898.66;;;13.71;59.09
71559;BME280;59382;43.852;25.952;2023-02-25T16:24:17;99918.53;;;13.76;59.15
71559;BME280;59382;43.852;25.952;2023-02-25T16:29:52;99901.63;;;13.69;58.85
71559;BME280;59382;43.852;25.952;2023-02-25T16:32:37;99912.97;;;13.66;58.87
71559;BME280;59382;43.852;25.952;2023-02-25T16:35:40;99894.91;;;13.55;59.07
71559;BME280;59382;43.852;25.952;2023-02-25T16:41:02;99904.63;;;13.51;58.75
71559;BME280;59382;43.852;25.952;2023-02-25T16:43:31;99906.78;;;13.49;59.12
71559;BME280;59382;43.852;25.952;2023-02-25T16:46:03;99903.25;;;13.49;58.95
71559;BME280;59382;43.852;25.952;2023-02-25T16:48:38;99900.88;;;13.52;58.85
71559;BME280;59382;43.852;25.952;2023-02-25T16:51:27;99881.72;;;13.42;58.61
71559;BME280;59382;43.852;25.952;2023-02-25T16:54:04;99858.78;;;13.28;58.41